KOSH/OSH METAR and TAF weather

Enter ICAO airport designator
Station Type Date Time Source
KOSH METAR 2021/04/14 19:53 UTC NOAA

KOSH 141953Z 29010G17KT 10SM BKN032 OVC041 04/M02 A3004 RMK AO2 SLP182 T00391022


Station Type Date Time Source
KOSH Decoded METAR 2021/04/14 19:53 UTC NOAA

WITTMAN REGIONAL AIRPORT, WI, United States (KOSH) 43-58N 88-33W 248M
Apr 14, 2021 - 03:53 PM EDT / 2021.04.14 1953 UTC
Wind: from the WNW (290 degrees) at 12 MPH (10 KT) gusting to 20 MPH (17 KT):0
Visibility: 10 mile(s):0
Sky conditions: overcast
Temperature: 39.0 F (3.9 C)
Dew Point: 28.0 F (-2.2 C)
Relative Humidity: 64%
Pressure (altimeter): 30.04 in. Hg (1017 hPa)
ob: KOSH 141953Z 29010G17KT 10SM BKN032 OVC041 04/M02 A3004 RMK AO2 SLP182 T00391022
cycle: 20

Station Type Date Time Source
KOSH TAF 2020/07/18 21:24 UTC NOAA

TAF
AMD KOSH 182120Z 1821/1918 21009G18KT P6SM SCT110
FM190200 21009KT P6SM VCTS SCT100CB
FM190900 23011KT P6SM TSRA OVC030CB
FM191000 23011G19KT P6SM VCTS OVC040CB
FM191100 24011KT P6SM OVC021
FM191300 27011KT P6SM BKN045

Example: see airport list